Time;durP1;ratioP1;P1;durP2;ratioP2;P2;SDS_P1;SDS_P2;PMS_P1;PMS_P2;Temp;Humidity;BMP_temperature;BMP_pressure;BME280_temperature;BME280_humidity;BME280_pressure;Samples;Min_cycle;Max_cycle;Signal;HPM_P1;HPM_P2
2023/08/04 00:01:53;;;;;;;1.48;1.08;;;16.60;74.10;;;18.32;53.41;97055.97;5014288;28;20057;-47
2023/08/04 00:04:21;;;;;;;2.20;1.08;;;16.60;74.10;;;18.30;53.43;97056.16;5013895;28;20046;-48
2023/08/04 00:06:48;;;;;;;2.20;0.80;;;16.60;74.50;;;18.29;53.43;97061.78;5014336;28;20050;-50
2023/08/04 00:09:16;;;;;;;1.85;0.93;;;16.50;74.70;;;18.28;53.64;97057.41;5013543;28;20054;-48
2023/08/04 00:11:44;;;;;;;2.58;1.00;;;16.50;75.00;;;18.26;53.82;97052.28;5013798;28;20045;-50
2023/08/04 00:14:13;;;;;;;1.40;1.00;;;16.50;75.00;;;18.28;53.64;97058.28;5012968;28;20062;-49
2023/08/04 00:16:41;;;;;;;2.40;1.08;;;16.50;75.00;;;18.28;53.71;97066.34;5020915;28;20050;-48
2023/08/04 00:19:08;;;;;;;2.20;1.00;;;16.60;75.20;;;18.25;53.82;97066.78;5013182;28;20042;-50
2023/08/04 00:21:36;;;;;;;2.58;1.10;;;16.50;75.70;;;18.25;53.93;97058.72;5012446;28;20052;-48
2023/08/04 00:24:04;;;;;;;1.35;1.02;;;16.50;75.80;;;18.27;53.93;97067.38;5013788;28;20037;-51
2023/08/04 00:26:32;;;;;;;3.47;1.55;;;16.50;75.80;;;18.23;54.14;97062.69;5013726;28;20046;-52
2023/08/04 00:28:59;;;;;;;2.28;1.00;;;16.50;76.20;;;18.23;54.14;97063.50;5012340;28;20545;-47
2023/08/04 00:31:27;;;;;;;1.45;1.10;;;16.50;76.30;;;18.19;54.21;97066.88;5013661;28;20056;-53
2023/08/04 00:33:55;;;;;;;2.92;2.00;;;16.50;76.50;;;18.19;54.32;97077.66;5013632;28;20046;-49
2023/08/04 00:36:22;;;;;;;4.45;2.33;;;16.50;76.70;;;18.19;54.43;97080.34;5010691;28;20046;-51
2023/08/04 00:38:50;;;;;;;1.55;1.00;;;16.40;76.70;;;18.12;54.56;97068.81;5003519;28;20053;-48
2023/08/04 00:41:18;;;;;;;2.47;1.13;;;16.30;77.10;;;18.05;54.63;97076.97;5013547;28;20052;-47
2023/08/04 00:43:45;;;;;;;2.80;1.10;;;16.20;77.50;;;18.04;54.62;97076.13;5011533;28;20050;-51
2023/08/04 00:46:13;;;;;;;3.72;1.60;;;16.30;77.50;;;18.03;54.61;97071.81;5012228;28;20045;-52
2023/08/04 00:48:41;;;;;;;2.28;1.23;;;16.20;77.50;;;18.04;54.58;97075.31;5011711;28;20054;-51
2023/08/04 00:51:08;;;;;;;2.10;1.30;;;16.20;77.60;;;18.00;54.74;97069.53;5012302;28;20494;-48
2023/08/04 00:53:36;;;;;;;2.08;1.05;;;16.20;77.70;;;17.99;54.69;97073.28;5012036;28;20053;-47
2023/08/04 00:56:04;;;;;;;3.25;1.35;;;16.20;77.80;;;17.98;54.74;97063.56;5011940;28;20054;-48
2023/08/04 00:58:35;;;;;;;1.52;0.90;;;16.20;77.60;;;17.95;54.88;97066.72;5011337;28;20052;-48
2023/08/04 01:01:02;;;;;;;3.13;1.70;;;16.10;78.00;;;17.86;55.19;97076.94;5012195;28;20050;-47
2023/08/04 01:03:31;;;;;;;2.17;1.00;;;16.10;78.40;;;17.90;55.04;97066.53;5012181;28;20053;-48
2023/08/04 01:06:25;;;;;;;3.67;1.48;;;16.10;78.30;;;17.87;55.04;97075.03;4979812;28;20053;-47
2023/08/04 01:09:11;;;;;;;1.67;1.00;;;16.10;78.50;;;17.80;55.53;97069.72;4988624;28;20421;-48
2023/08/04 01:12:10;;;;;;;2.40;1.40;;;16.10;78.70;;;17.67;55.84;97069.81;5013081;28;20068;-49
2023/08/04 01:14:41;;;;;;;2.65;1.20;;;16.00;79.50;;;17.68;55.78;97079.53;5004103;28;20050;-47
2023/08/04 01:17:29;;;;;;;2.55;1.35;;;15.90;79.50;;;17.65;55.72;97079.97;5011524;28;20046;-49
2023/08/04 01:19:58;;;;;;;1.23;1.05;;;15.90;79.70;;;17.61;55.69;97070.72;5005236;28;20064;-47
2023/08/04 01:22:26;;;;;;;3.55;1.10;;;15.80;80.00;;;17.64;55.63;97072.94;5011470;28;20046;-50
2023/08/04 01:24:55;;;;;;;1.77;1.00;;;15.80;79.80;;;17.62;55.46;97069.66;5003730;28;20073;-50
2023/08/04 01:27:52;;;;;;;1.92;1.20;;;15.80;80.00;;;17.60;55.69;97072.59;4995461;28;20049;-49
2023/08/04 01:30:23;;;;;;;3.88;1.70;;;15.80;80.20;;;17.63;55.61;97068.63;5006487;28;20049;-52
2023/08/04 01:32:51;;;;;;;2.83;1.38;;;15.80;80.00;;;17.66;55.61;97069.00;5011263;28;20049;-51
2023/08/04 01:35:18;;;;;;;4.22;1.30;;;15.80;79.70;;;17.67;55.62;97075.19;5003646;28;20413;-51
2023/08/04 01:37:46;;;;;;;2.58;1.23;;;15.80;79.60;;;17.68;55.57;97068.75;4978803;28;20045;-47
2023/08/04 01:40:14;;;;;;;1.13;1.08;;;15.90;79.60;;;17.67;55.59;97067.94;4993570;28;20050;-51
2023/08/04 01:42:42;;;;;;;1.83;1.20;;;15.80;79.50;;;17.69;55.61;97070.41;5011422;28;20061;-50
2023/08/04 01:45:10;;;;;;;2.10;1.13;;;15.90;79.40;;;17.66;55.72;97073.53;5012381;28;20417;-47
2023/08/04 01:47:39;;;;;;;2.42;1.45;;;15.80;79.60;;;17.66;55.69;97063.63;5010824;28;20123;-48
2023/08/04 01:50:09;;;;;;;3.00;1.35;;;15.90;79.90;;;17.63;55.93;97069.44;4993847;28;20502;-52
2023/08/04 01:52:37;;;;;;;1.75;1.05;;;15.80;80.00;;;17.66;55.72;97069.00;5011763;28;20046;-46
2023/08/04 01:55:05;;;;;;;2.92;1.25;;;15.90;79.90;;;17.65;55.84;97067.34;4994875;28;20050;-51
2023/08/04 01:57:33;;;;;;;1.70;1.20;;;15.90;80.10;;;17.67;55.82;97067.94;5011808;28;20038;-51
2023/08/04 02:00:00;;;;;;;1.08;0.95;;;15.90;80.20;;;17.70;55.94;97067.53;5011926;28;20491;-48
2023/08/04 02:02:38;;;;;;;1.75;1.00;;;15.90;80.10;;;17.70;55.88;97066.69;5013540;28;20050;-51
2023/08/04 02:05:07;;;;;;;1.50;1.02;;;15.90;80.20;;;17.68;55.98;97068.75;5027115;28;20490;-48
2023/08/04 02:07:34;;;;;;;1.52;1.02;;;15.90;80.50;;;17.68;56.19;97066.91;5010609;28;20050;-49
2023/08/04 02:10:03;;;;;;;1.65;1.30;;;15.90;80.80;;;17.67;56.23;97072.50;5011701;28;20417;-51
2023/08/04 02:12:30;;;;;;;1.83;0.90;;;15.80;81.00;;;17.61;56.35;97074.22;5011948;28;20046;-48
2023/08/04 02:15:00;;;;;;;1.77;1.00;;;15.70;81.60;;;17.58;56.54;97074.63;5012002;28;20041;-50
2023/08/04 02:17:29;;;;;;;2.58;1.40;;;15.70;82.20;;;17.59;56.29;97072.78;5010414;28;20060;-51
2023/08/04 02:19:56;;;;;;;5.45;1.20;;;15.70;82.20;;;17.58;56.63;97071.13;5010357;28;20045;-49
2023/08/04 02:22:24;;;;;;;2.22;0.90;;;15.70;82.30;;;17.57;56.52;97067.63;5010480;28;20449;-50
2023/08/04 02:24:51;;;;;;;2.15;1.45;;;15.70;82.50;;;17.56;56.70;97073.22;5010603;28;20050;-47
2023/08/04 02:27:19;;;;;;;2.58;1.40;;;15.70;82.70;;;17.54;56.82;97069.94;5027234;28;20501;-49
2023/08/04 02:29:47;;;;;;;2.08;1.52;;;15.70;83.00;;;17.51;56.96;97073.91;5010095;28;20057;-51
2023/08/04 02:32:14;;;;;;;0.73;0.73;;;15.60;83.00;;;17.47;57.10;97073.50;5010758;28;20050;-50
2023/08/04 02:34:42;;;;;;;2.35;1.00;;;15.60;83.30;;;17.47;56.97;97073.50;5010497;28;20077;-51
2023/08/04 02:37:09;;;;;;;3.90;1.08;;;15.60;83.50;;;17.48;57.20;97075.13;5010536;28;20505;-49
2023/08/04 02:39:37;;;;;;;3.97;1.75;;;15.60;83.50;;;17.50;57.21;97077.59;5009930;28;20042;-49
2023/08/04 02:42:05;;;;;;;3.22;1.10;;;15.70;83.50;;;17.52;56.97;97081.75;5010683;28;20050;-47
2023/08/04 02:44:33;;;;;;;2.60;1.30;;;15.70;83.30;;;17.53;57.04;97079.88;5011596;28;20501;-48
2023/08/04 02:47:02;;;;;;;4.10;1.25;;;15.70;83.10;;;17.54;57.08;97086.88;5002732;28;20038;-50
2023/08/04 02:49:29;;;;;;;1.63;1.23;;;15.70;82.90;;;17.56;56.89;97078.59;5009926;28;20057;-51
2023/08/04 02:51:57;;;;;;;3.45;1.08;;;15.80;82.60;;;17.60;56.67;97077.13;4993658;28;20065;-48
2023/08/04 02:54:25;;;;;;;2.22;1.00;;;15.80;82.30;;;17.61;56.71;97079.59;5027103;28;20046;-50
2023/08/04 02:56:52;;;;;;;3.00;1.30;;;15.80;81.90;;;17.63;56.42;97076.69;5010292;28;20255;-49
2023/08/04 02:59:20;;;;;;;2.47;1.20;;;15.80;81.30;;;17.66;56.37;97073.53;5010955;28;20418;-47
2023/08/04 03:01:47;;;;;;;2.03;1.30;;;15.90;81.50;;;17.67;56.45;97069.81;5011282;28;20050;-46
2023/08/04 03:04:15;;;;;;;0.80;0.80;;;15.90;81.00;;;17.65;56.59;97075.41;5011225;28;20046;-47
2023/08/04 03:06:43;;;;;;;3.00;1.08;;;15.80;81.00;;;17.67;56.38;97076.03;5011257;28;20045;-47
2023/08/04 03:09:11;;;;;;;2.13;1.17;;;15.90;80.80;;;17.69;56.40;97073.94;5014764;28;20050;-48
2023/08/04 03:11:38;;;;;;;3.65;1.52;;;15.90;80.70;;;17.70;56.35;97070.22;5014965;28;20054;-49
2023/08/04 03:14:06;;;;;;;1.92;1.20;;;15.90;80.40;;;17.70;56.34;97069.41;5007248;28;20049;-52
2023/08/04 03:16:33;;;;;;;1.40;1.30;;;16.00;80.50;;;17.72;56.17;97070.00;5015220;28;20050;-50
2023/08/04 03:19:01;;;;;;;1.83;0.88;;;15.90;80.40;;;17.62;56.36;97083.09;5014993;28;20053;-50
2023/08/04 03:21:29;;;;;;;1.20;1.10;;;15.90;80.80;;;17.59;56.49;97078.19;5015094;28;20046;-49
2023/08/04 03:23:56;;;;;;;1.52;1.20;;;15.90;81.00;;;17.59;56.61;97080.88;5014748;28;20040;-52
2023/08/04 03:26:24;;;;;;;2.03;0.95;;;15.90;80.90;;;17.60;56.48;97085.19;5014890;28;20038;-48
2023/08/04 03:28:51;;;;;;;1.45;1.10;;;15.80;80.70;;;17.61;56.41;97078.78;5014528;28;20073;-49
2023/08/04 03:31:19;;;;;;;2.13;1.63;;;15.90;80.60;;;17.62;56.35;97085.78;5015007;28;20050;-50
2023/08/04 03:33:46;;;;;;;4.05;1.20;;;15.90;80.60;;;17.62;56.46;97093.88;5013607;28;20050;-49
2023/08/04 03:36:14;;;;;;;2.28;1.25;;;15.90;80.40;;;17.62;56.36;97085.78;5014681;28;20046;-52
2023/08/04 03:38:42;;;;;;;3.17;1.02;;;15.90;80.40;;;17.60;56.56;97087.88;5011762;28;20045;-48
2023/08/04 03:41:09;;;;;;;3.72;1.27;;;15.90;80.60;;;17.66;56.30;97093.22;5014749;28;20046;-46
2023/08/04 03:43:37;;;;;;;2.70;1.23;;;15.90;80.00;;;17.67;56.30;97086.78;5014728;28;20050;-46
2023/08/04 03:46:04;;;;;;;2.90;1.35;;;16.00;80.20;;;17.69;56.33;97082.00;5014789;28;20041;-51
2023/08/04 03:48:32;;;;;;;5.60;1.10;;;16.00;80.00;;;17.69;56.38;97082.00;5013996;28;20053;-49
2023/08/04 03:51:00;;;;;;;1.85;1.15;;;16.00;80.00;;;17.71;56.20;97089.88;5014907;28;20050;-50
2023/08/04 03:53:27;;;;;;;3.00;1.15;;;16.00;79.80;;;17.69;56.40;97089.25;5014454;28;20050;-49
2023/08/04 03:55:55;;;;;;;2.55;1.27;;;16.00;80.20;;;17.75;56.24;97084.88;5014358;28;20049;-50
2023/08/04 03:58:23;;;;;;;2.08;1.10;;;16.00;80.90;;;17.78;56.22;97085.25;5012854;28;20524;-50
2023/08/04 04:00:50;;;;;;;3.15;1.40;;;16.00;79.70;;;17.76;56.23;97081.13;5014253;28;20049;-50
2023/08/04 04:03:18;;;;;;;2.20;1.40;;;16.00;79.80;;;17.77;56.03;97080.91;5014405;28;20034;-50
2023/08/04 04:05:45;;;;;;;2.22;1.00;;;16.00;79.70;;;17.80;56.20;97082.34;5014290;28;20057;-49
2023/08/04 04:08:13;;;;;;;5.30;1.58;;;16.00;79.40;;;17.79;56.10;97081.50;5012278;28;20540;-48
2023/08/04 04:10:41;;;;;;;2.15;1.02;;;16.00;79.30;;;17.82;56.04;97091.84;5014017;28;20038;-48
2023/08/04 04:13:08;;;;;;;2.00;1.00;;;16.10;78.90;;;17.79;56.05;97080.69;5013904;28;20053;-51
2023/08/04 04:15:36;;;;;;;1.52;1.02;;;16.10;78.90;;;17.83;55.94;97081.88;5014153;28;20069;-49
2023/08/04 04:18:03;;;;;;;3.72;1.20;;;16.10;78.70;;;17.86;55.86;97084.19;5013504;28;20042;-49
2023/08/04 04:20:32;;;;;;;1.90;1.10;;;16.20;78.50;;;17.83;55.86;97087.28;5012963;28;20465;-50
2023/08/04 04:23:00;;;;;;;3.58;1.10;;;16.10;79.50;;;17.85;55.80;97083.34;5013934;28;20038;-49
2023/08/04 04:25:27;;;;;;;1.73;1.13;;;16.20;78.50;;;17.86;55.68;97076.94;5012828;28;20033;-48
2023/08/04 04:27:55;;;;;;;2.80;1.08;;;16.20;78.50;;;17.83;55.78;97090.78;5013307;28;20069;-49
2023/08/04 04:30:23;;;;;;;1.77;1.50;;;16.20;78.50;;;17.86;55.70;97090.38;5013606;28;20045;-50
2023/08/04 04:32:50;;;;;;;1.67;0.93;;;16.20;78.50;;;17.87;55.73;97091.19;5013615;28;20042;-50
2023/08/04 04:35:18;;;;;;;3.70;0.98;;;16.10;78.70;;;17.82;55.66;97097.22;5013836;28;20505;-49
2023/08/04 04:37:45;;;;;;;3.78;1.35;;;16.10;78.50;;;17.80;55.84;97093.94;5013459;28;20527;-47
2023/08/04 04:40:13;;;;;;;2.55;1.10;;;16.10;79.10;;;17.81;56.19;97092.88;5004006;28;20425;-47
2023/08/04 04:42:41;;;;;;;2.72;1.17;;;16.10;79.50;;;17.87;56.04;97101.97;5013267;28;20037;-50
2023/08/04 04:45:09;;;;;;;1.98;1.50;;;16.20;79.50;;;17.90;55.96;97106.94;5012451;28;20049;-47
2023/08/04 04:47:37;;;;;;;2.10;1.10;;;16.20;79.50;;;17.91;55.94;97097.78;5013329;28;20512;-48
2023/08/04 04:50:05;;;;;;;2.90;1.08;;;16.20;79.20;;;17.93;55.99;97098.38;5013100;28;20053;-47
2023/08/04 04:52:37;;;;;;;2.53;1.10;;;16.20;79.20;;;17.99;55.97;97105.59;5013292;28;20110;-51
2023/08/04 04:55:06;;;;;;;2.28;1.10;;;16.40;79.00;;;18.01;55.75;97110.75;5013327;28;20497;-49
2023/08/04 04:57:39;;;;;;;1.73;1.10;;;16.30;78.70;;;18.01;55.88;97099.97;5013125;28;20038;-49
2023/08/04 05:00:08;;;;;;;2.60;1.30;;;16.30;78.80;;;18.06;55.99;97111.72;5012717;28;20053;-47
2023/08/04 05:02:36;;;;;;;1.25;1.00;;;16.40;78.80;;;18.11;55.78;97113.78;5013370;28;20409;-49
2023/08/04 05:05:04;;;;;;;2.28;1.30;;;16.40;78.30;;;18.13;55.80;97113.56;5011690;28;20064;-47
2023/08/04 05:07:31;;;;;;;2.25;1.00;;;16.40;78.10;;;18.19;55.84;97118.06;5013374;28;20034;-48
2023/08/04 05:09:59;;;;;;;2.13;1.00;;;16.50;78.50;;;18.23;55.71;97121.94;5012628;28;20045;-49
2023/08/04 05:12:26;;;;;;;1.95;1.55;;;16.60;78.10;;;18.28;55.53;97122.94;5013009;28;20049;-50
2023/08/04 05:14:54;;;;;;;1.85;1.30;;;16.70;77.70;;;18.32;55.55;97126.00;5012982;28;20045;-47
2023/08/04 05:17:22;;;;;;;3.42;1.52;;;16.70;77.40;;;18.35;55.89;97125.53;5012889;28;20050;-48
2023/08/04 05:19:49;;;;;;;2.50;1.70;;;16.70;78.40;;;18.37;56.13;97128.84;5012105;28;20050;-49
2023/08/04 05:22:17;;;;;;;3.92;2.15;;;16.80;79.10;;;18.41;56.31;97130.03;5003813;28;20048;-53
2023/08/04 05:24:44;;;;;;;2.85;2.13;;;16.80;79.30;;;18.46;56.28;97132.91;5012864;28;20064;-53
2023/08/04 05:27:18;;;;;;;4.25;2.17;;;16.80;79.20;;;18.49;56.13;97132.47;5004979;28;20046;-48
2023/08/04 05:29:46;;;;;;;3.40;1.27;;;16.90;79.20;;;18.51;56.20;97137.59;5011958;28;20054;-48
2023/08/04 05:32:13;;;;;;;2.85;1.45;;;16.90;79.40;;;18.53;56.24;97132.00;5012836;28;20269;-49
2023/08/04 05:34:41;;;;;;;2.97;1.38;;;16.90;79.60;;;18.56;56.29;97129.69;5012418;28;20050;-46
2023/08/04 05:37:09;;;;;;;2.13;1.38;;;16.90;79.30;;;18.59;56.40;97125.69;5012448;28;20517;-52
2023/08/04 05:39:36;;;;;;;2.00;1.25;;;16.90;79.60;;;18.63;56.35;97132.28;5010911;28;20049;-51
2023/08/04 05:42:04;;;;;;;6.05;1.65;;;17.00;79.50;;;18.64;56.37;97133.94;5011370;28;20042;-51
2023/08/04 05:44:32;;;;;;;2.40;1.30;;;17.00;79.60;;;18.65;56.25;97133.72;5012368;28;20053;-53
2023/08/04 05:47:00;;;;;;;2.95;1.73;;;17.00;79.50;;;18.67;56.06;97133.50;5012262;28;20441;-49
2023/08/04 05:49:27;;;;;;;2.33;0.90;;;17.00;79.00;;;18.69;55.98;97134.09;5011940;28;20489;-51
2023/08/04 05:51:55;;;;;;;1.33;1.08;;;17.00;78.80;;;18.70;55.82;97133.84;5010783;28;20050;-48
2023/08/04 05:54:22;;;;;;;3.60;0.90;;;17.00;78.70;;;18.74;55.71;97136.13;5012307;28;20045;-48
2023/08/04 05:56:50;;;;;;;2.13;1.05;;;17.10;78.40;;;18.78;55.52;97130.03;5012227;28;20034;-46
2023/08/04 05:59:17;;;;;;;3.15;1.08;;;17.10;77.80;;;18.82;55.30;97138.53;5011604;28;20045;-49
2023/08/04 06:01:45;;;;;;;1.20;1.10;;;17.20;77.00;;;18.85;55.12;97138.09;5012371;28;20049;-50
2023/08/04 06:04:13;;;;;;;1.65;0.90;;;17.20;76.60;;;18.90;54.83;97135.50;5011837;28;20037;-46
2023/08/04 06:06:41;;;;;;;1.20;0.68;;;17.30;76.20;;;18.92;54.77;97133.44;5012058;28;20038;-47
2023/08/04 06:09:08;;;;;;;0.77;0.77;;;17.30;75.60;;;18.94;54.48;97136.75;5011334;28;20053;-48
2023/08/04 06:11:36;;;;;;;2.35;1.00;;;17.30;74.60;;;18.94;54.41;97142.13;5011996;28;20042;-51
2023/08/04 06:14:04;;;;;;;1.60;1.20;;;17.40;75.10;;;18.96;54.33;97142.72;5011757;28;20042;-50
2023/08/04 06:16:32;;;;;;;3.00;0.80;;;17.40;74.70;;;18.99;54.45;97142.25;5010591;28;20413;-51
2023/08/04 06:19:00;;;;;;;1.00;0.80;;;17.40;74.70;;;19.00;54.50;97146.63;5011423;28;20498;-47
2023/08/04 06:21:29;;;;;;;1.13;0.95;;;17.50;74.70;;;18.93;54.56;97151.25;5011802;28;20497;-51
2023/08/04 06:23:57;;;;;;;1.63;1.30;;;17.40;74.90;;;18.85;54.56;97152.38;5011801;28;20038;-50
2023/08/04 06:26:24;;;;;;;1.27;0.90;;;17.40;74.60;;;18.80;54.51;97149.53;5003983;28;20398;-50
2023/08/04 06:28:52;;;;;;;1.60;0.95;;;17.30;74.70;;;18.86;54.72;97150.50;5011173;28;20413;-50
2023/08/04 06:31:19;;;;;;;2.92;1.50;;;17.40;75.50;;;18.88;55.17;97154.66;5010405;28;20049;-50
2023/08/04 06:33:47;;;;;;;1.30;1.20;;;17.30;76.30;;;18.84;55.23;97150.75;5011465;28;20049;-48
2023/08/04 06:36:14;;;;;;;4.45;1.05;;;17.30;76.10;;;18.87;55.47;97157.56;5011156;28;20037;-47
2023/08/04 06:38:42;;;;;;;1.48;1.00;;;17.30;77.30;;;18.91;55.95;97158.75;5006783;28;20048;-48
2023/08/04 06:41:10;;;;;;;2.10;1.05;;;17.30;78.80;;;18.88;56.19;97153.81;5010584;28;20398;-51
2023/08/04 06:43:37;;;;;;;3.75;1.52;;;17.20;79.40;;;18.86;56.29;97158.59;5008109;28;20038;-51
2023/08/04 06:46:05;;;;;;;3.22;1.30;;;17.20;79.50;;;18.91;56.48;97157.94;5010988;28;20053;-50
2023/08/04 06:48:32;;;;;;;2.15;1.48;;;17.30;80.70;;;18.93;56.67;97167.44;5009753;28;20497;-49
2023/08/04 06:51:00;;;;;;;2.63;1.40;;;17.40;81.50;;;18.90;57.10;97167.88;5010809;28;20046;-50
2023/08/04 06:53:27;;;;;;;2.25;1.50;;;17.20;82.20;;;18.87;56.90;97163.78;5009767;28;20045;-46
2023/08/04 06:55:55;;;;;;;3.60;1.60;;;17.20;82.00;;;18.89;57.08;97177.03;5011408;28;20046;-48
2023/08/04 06:58:23;;;;;;;3.15;1.50;;;17.20;82.20;;;18.86;56.88;97169.38;5010957;28;20498;-50
2023/08/04 07:00:50;;;;;;;1.75;1.60;;;17.10;81.50;;;18.87;56.78;97173.75;5011238;28;20044;-47
2023/08/04 07:03:18;;;;;;;2.28;1.52;;;17.20;81.30;;;18.95;56.36;97169.91;5011292;28;20050;-51
2023/08/04 07:05:45;;;;;;;4.50;1.45;;;17.30;80.40;;;18.97;56.30;97170.50;5018458;28;20049;-45
2023/08/04 07:08:13;;;;;;;3.33;1.30;;;17.40;78.50;;;19.01;55.95;97177.91;5010687;28;20398;-49
2023/08/04 07:10:41;;;;;;;3.65;1.50;;;17.40;78.10;;;19.07;55.99;97179.69;5011068;28;20046;-48
2023/08/04 07:13:08;;;;;;;2.70;1.40;;;17.50;78.20;;;19.15;56.05;97177.75;5011285;28;20060;-46
2023/08/04 07:15:37;;;;;;;2.65;1.23;;;17.60;78.70;;;19.25;56.22;97181.56;5011288;28;20050;-48
2023/08/04 07:18:05;;;;;;;3.60;1.15;;;17.70;78.70;;;19.36;55.88;97177.25;5010769;28;20057;-49
2023/08/04 07:20:32;;;;;;;2.15;1.23;;;17.80;78.30;;;19.47;55.89;97172.97;5010889;28;20041;-51
2023/08/04 07:23:00;;;;;;;2.17;1.30;;;18.00;78.00;;;19.53;55.79;97184.72;5010787;28;20046;-51
2023/08/04 07:25:28;;;;;;;4.63;1.60;;;18.00;77.20;;;19.48;55.72;97180.84;5010893;28;20042;-46
2023/08/04 07:27:55;;;;;;;1.95;1.45;;;18.00;77.20;;;19.55;55.89;97179.91;5011005;28;20046;-52
2023/08/04 07:30:23;;;;;;;2.22;1.50;;;18.00;77.70;;;19.61;55.58;97181.69;5010629;28;20490;-49
2023/08/04 07:32:50;;;;;;;1.58;1.42;;;18.10;77.50;;;19.63;55.44;97183.09;5009926;28;20072;-48
2023/08/04 07:35:18;;;;;;;2.88;1.30;;;18.10;76.90;;;19.58;55.22;97182.97;5010967;28;20045;-53
2023/08/04 07:37:46;;;;;;;4.60;1.60;;;18.00;77.10;;;19.54;55.77;97186.34;5010866;28;20053;-47
2023/08/04 07:40:13;;;;;;;1.55;1.23;;;18.00;77.50;;;19.63;55.95;97191.19;5010470;28;20409;-51
2023/08/04 07:42:42;;;;;;;2.30;1.05;;;18.10;78.30;;;19.70;55.98;97196.53;5010543;28;20063;-48
2023/08/04 07:45:10;;;;;;;2.03;1.10;;;18.30;77.80;;;19.73;55.30;97204.16;5009552;28;20053;-50
2023/08/04 07:47:37;;;;;;;4.32;1.27;;;18.30;76.30;;;19.76;55.57;97208.31;5010765;28;20034;-49
2023/08/04 07:50:07;;;;;;;3.97;1.20;;;18.30;77.00;;;19.78;55.23;97211.59;5010532;28;20413;-51
2023/08/04 07:52:34;;;;;;;1.73;1.30;;;18.20;76.50;;;19.80;55.25;97210.31;5009822;28;20046;-50
2023/08/04 07:55:02;;;;;;;5.35;1.35;;;18.20;77.20;;;19.85;55.35;97206.91;5014155;28;20041;-49
2023/08/04 07:57:30;;;;;;;2.05;1.20;;;18.30;77.00;;;19.92;55.27;97213.03;5013947;28;20093;-53
2023/08/04 07:59:57;;;;;;;2.80;1.13;;;18.40;76.20;;;20.00;54.88;97209.19;5014052;28;20049;-50
2023/08/04 08:02:25;;;;;;;2.08;1.35;;;18.50;76.10;;;20.10;55.00;97209.41;5014150;28;20046;-50
2023/08/04 08:04:53;;;;;;;3.72;1.30;;;18.70;76.10;;;20.14;54.94;97210.63;5014120;28;20042;-51
2023/08/04 08:07:21;;;;;;;1.88;1.20;;;18.70;75.70;;;20.18;54.83;97210.97;5014121;28;20050;-49
2023/08/04 08:10:06;;;;;;;1.80;1.20;;;18.70;75.80;;;20.19;54.89;97216.13;5013987;28;20053;-46
2023/08/04 08:12:34;;;;;;;2.55;1.35;;;18.70;75.30;;;20.23;55.04;97217.31;5006341;28;20038;-49
2023/08/04 08:15:05;;;;;;;1.45;1.00;;;18.80;75.30;;;20.29;54.84;97218.25;5013783;28;20034;-49
2023/08/04 08:17:32;;;;;;;2.90;1.08;;;19.00;75.00;;;20.33;54.93;97213.22;5012737;28;20042;-50
2023/08/04 08:20:00;;;;;;;2.10;1.05;;;19.00;74.30;;;20.37;54.51;97209.81;5013790;28;20038;-52
2023/08/04 08:22:28;;;;;;;5.20;1.40;;;19.00;73.80;;;20.43;54.54;97210.75;5012624;28;20485;-50
2023/08/04 08:24:56;;;;;;;1.83;1.20;;;19.10;73.60;;;20.46;54.05;97215.69;5013713;28;20037;-50
2023/08/04 08:27:24;;;;;;;2.28;1.10;;;19.10;73.00;;;20.50;54.32;97216.88;5012853;28;20065;-52
2023/08/04 08:29:55;;;;;;;2.47;1.35;;;19.20;74.30;;;20.56;53.35;97212.41;5012443;28;20037;-53
2023/08/04 08:32:22;;;;;;;2.63;1.15;;;19.20;71.70;;;20.51;53.58;97212.28;5014189;28;20050;-51
2023/08/04 08:34:50;;;;;;;1.42;1.00;;;19.00;72.40;;;20.44;53.15;97215.09;5013461;28;20045;-51
2023/08/04 08:37:18;;;;;;;2.03;1.00;;;19.00;72.20;;;20.46;53.33;97208.41;5013777;28;20038;-49
2023/08/04 08:39:45;;;;;;;2.67;0.93;;;19.10;72.70;;;20.49;53.34;97206.28;5013176;28;20050;-48
2023/08/04 08:42:14;;;;;;;1.30;1.10;;;19.10;72.50;;;20.48;53.81;97210.88;5013474;28;20042;-47
2023/08/04 08:44:41;;;;;;;3.42;1.33;;;19.10;72.90;;;20.46;53.51;97210.28;5013536;28;20042;-49
2023/08/04 08:47:09;;;;;;;3.92;1.48;;;19.00;72.80;;;20.50;53.68;97206.06;5012309;28;20056;-50
2023/08/04 08:49:46;;;;;;;2.97;1.13;;;19.20;73.00;;;20.54;53.82;97209.13;5004972;28;20390;-53
2023/08/04 08:52:14;;;;;;;2.13;1.05;;;19.20;72.30;;;20.56;53.68;97205.09;5012119;28;20417;-49
2023/08/04 08:54:43;;;;;;;4.68;1.80;;;19.10;72.60;;;20.62;53.79;97206.88;5013338;28;20050;-52
2023/08/04 08:57:11;;;;;;;1.95;1.30;;;19.30;72.60;;;20.61;53.43;97213.38;5011881;28;20053;-51
2023/08/04 08:59:40;;;;;;;2.88;1.15;;;19.20;70.50;;;20.56;53.24;97204.28;5003909;28;20421;-50
2023/08/04 09:02:09;;;;;;;4.13;1.05;;;19.10;72.40;;;20.63;53.85;97205.03;5011964;28;20098;-49
2023/08/04 09:04:38;;;;;;;2.67;1.55;;;19.20;73.00;;;20.71;53.81;97209.25;5011140;28;20042;-53
2023/08/04 09:07:06;;;;;;;2.63;1.40;;;19.30;73.20;;;20.76;53.79;97201.22;5011352;28;20053;-50
2023/08/04 09:09:35;;;;;;;5.25;2.70;;;19.40;73.20;;;20.77;53.68;97211.00;5012421;28;20053;-51
2023/08/04 09:12:03;;;;;;;4.32;1.90;;;19.30;73.30;;;20.75;53.59;97222.06;5012992;28;20455;-49
2023/08/04 09:14:53;;;;;;;3.63;1.73;;;19.20;73.10;;;20.61;53.51;97228.78;4995544;28;20054;-49
2023/08/04 09:17:33;;;;;;;4.55;1.50;;;19.00;73.40;;;20.61;53.97;97223.38;4996051;28;20513;-49
2023/08/04 09:20:05;;;;;;;3.80;1.40;;;19.00;74.50;;;20.65;53.82;97224.53;5011257;28;20057;-51
2023/08/04 09:22:44;;;;;;;4.70;1.58;;;19.10;74.10;;;20.68;53.97;97223.25;5012676;28;20046;-48
2023/08/04 09:25:11;;;;;;;3.72;1.63;;;19.20;74.10;;;20.76;53.96;97222.88;5012688;28;20057;-48
2023/08/04 09:27:43;;;;;;;3.13;2.00;;;19.30;73.70;;;20.87;53.74;97221.22;5012169;28;20433;-47
2023/08/04 09:30:11;;;;;;;4.72;1.33;;;19.50;73.60;;;21.00;53.99;97219.09;5012387;28;20056;-49
2023/08/04 09:32:45;;;;;;;6.82;1.63;;;19.70;73.30;;;21.11;53.66;97214.72;5012370;28;20041;-51
2023/08/04 09:35:13;;;;;;;2.70;1.70;;;19.90;72.70;;;21.12;53.67;97221.75;5012630;28;20041;-55
2023/08/04 09:37:42;;;;;;;2.90;1.25;;;19.90;72.50;;;21.20;53.32;97205.16;5004138;28;20049;-49
2023/08/04 09:40:18;;;;;;;4.70;1.67;;;19.80;72.00;;;21.34;53.45;97207.56;5006975;28;20390;-50
2023/08/04 09:42:47;;;;;;;3.38;1.60;;;20.10;72.10;;;21.35;52.59;97215.47;5003910;28;20502;-47
2023/08/04 09:45:17;;;;;;;1.92;1.30;;;20.10;70.50;;;21.43;52.92;97209.69;5012513;28;20046;-52
2023/08/04 09:47:50;;;;;;;2.25;1.30;;;20.20;71.00;;;21.56;52.86;97215.91;5003214;28;20429;-52
2023/08/04 09:50:19;;;;;;;3.70;1.48;;;20.30;70.70;;;21.68;52.32;97213.94;5010785;28;20077;-47
2023/08/04 09:52:47;;;;;;;1.45;1.10;;;20.40;70.10;;;21.75;52.36;97221.91;5011840;28;20088;-49
2023/08/04 09:55:15;;;;;;;3.03;1.25;;;20.50;69.80;;;21.66;51.99;97218.78;5012129;28;20497;-52
2023/08/04 09:57:44;;;;;;;3.38;1.25;;;20.20;69.60;;;21.65;52.02;97219.03;5011980;28;20049;-49
2023/08/04 10:00:12;;;;;;;1.25;1.15;;;20.20;69.00;;;21.58;51.47;97211.06;4994687;28;20053;-52
2023/08/04 10:02:41;;;;;;;1.98;1.65;;;20.10;69.00;;;21.55;51.54;97208.81;5010805;28;20065;-48
2023/08/04 10:05:11;;;;;;;1.80;1.25;;;20.10;69.50;;;21.50;52.05;97211.44;5010764;28;20045;-48
2023/08/04 10:07:40;;;;;;;4.07;1.45;;;20.00;70.00;;;21.45;51.73;97214.06;5011767;28;20050;-50
2023/08/04 10:10:08;;;;;;;2.85;1.27;;;19.90;69.90;;;21.30;52.07;97206.41;5011381;28;20050;-50
2023/08/04 10:12:37;;;;;;;4.03;1.38;;;19.80;71.00;;;21.33;52.69;97209.47;5010794;28;20057;-49
2023/08/04 10:15:07;;;;;;;5.22;1.65;;;19.90;71.40;;;21.30;52.78;97209.13;5010639;28;20038;-51
2023/08/04 10:17:35;;;;;;;1.77;1.40;;;19.90;72.10;;;21.34;52.92;97215.69;5010642;28;20042;-52
2023/08/04 10:20:06;;;;;;;3.45;1.25;;;20.00;70.70;;;21.18;53.68;97223.50;5011582;28;20057;-48
2023/08/04 10:22:34;;;;;;;3.35;1.30;;;19.80;74.30;;;21.05;55.58;97218.34;5011729;28;20042;-49
2023/08/04 10:25:13;;;;;;;2.40;1.17;;;19.60;77.60;;;21.03;56.18;97210.50;5010269;28;20046;-47
2023/08/04 10:27:49;;;;;;;1.27;1.17;;;19.60;78.50;;;21.13;56.93;97209.03;5011529;28;20050;-46